sensor_id;sensor_type;location;lat;lon;timestamp;pressure;altitude;pressure_sealevel;temperature;humidity
9187;BME280;7273;48.902;9.410;2022-09-17T00:00:19;97654.38;;;10.82;76.76
9187;BME280;7273;48.902;9.410;2022-09-17T00:02:49;97651.09;;;10.85;76.92
9187;BME280;7273;48.902;9.410;2022-09-17T00:05:16;97655.47;;;10.81;76.75
9187;BME280;7273;48.902;9.410;2022-09-17T00:07:41;97652.25;;;10.79;76.95
9187;BME280;7273;48.902;9.410;2022-09-17T00:10:07;97654.38;;;10.82;76.96
9187;BME280;7273;48.902;9.410;2022-09-17T00:12:32;97645.56;;;10.72;76.89
9187;BME280;7273;48.902;9.410;2022-09-17T00:14:58;97660.66;;;10.78;76.85
9187;BME280;7273;48.902;9.410;2022-09-17T00:17:23;97657.72;;;10.74;76.97
9187;BME280;7273;48.902;9.410;2022-09-17T00:19:49;97657.13;;;10.77;77.00
9187;BME280;7273;48.902;9.410;2022-09-17T00:22:14;97655.25;;;10.78;76.94
9187;BME280;7273;48.902;9.410;2022-09-17T00:24:40;97660.66;;;10.78;76.94
9187;BME280;7273;48.902;9.410;2022-09-17T00:27:06;97661.66;;;10.82;76.98
9187;BME280;7273;48.902;9.410;2022-09-17T00:29:32;97661.97;;;10.80;77.02
9187;BME280;7273;48.902;9.410;2022-09-17T00:31:57;97662.47;;;10.82;76.93
9187;BME280;7273;48.902;9.410;2022-09-17T00:34:23;97658.41;;;10.85;76.85
9187;BME280;7273;48.902;9.410;2022-09-17T00:36:48;97657.59;;;10.84;76.73
9187;BME280;7273;48.902;9.410;2022-09-17T00:39:13;97652.72;;;10.87;76.71
9187;BME280;7273;48.902;9.410;2022-09-17T00:41:40;97665.13;;;10.88;76.60
9187;BME280;7273;48.902;9.410;2022-09-17T00:49:54;97658.13;;;10.87;76.69
9187;BME280;7273;48.902;9.410;2022-09-17T00:52:25;97657.59;;;10.84;76.57
9187;BME280;7273;48.902;9.410;2022-09-17T00:54:57;97662.44;;;10.88;76.47
9187;BME280;7273;48.902;9.410;2022-09-17T00:57:24;97660.59;;;10.83;76.71
9187;BME280;7273;48.902;9.410;2022-09-17T00:59:51;97654.03;;;10.89;76.56
9187;BME280;7273;48.902;9.410;2022-09-17T01:02:16;97661.25;;;10.94;76.46
9187;BME280;7273;48.902;9.410;2022-09-17T01:04:42;97660.25;;;10.90;76.66
9187;BME280;7273;48.902;9.410;2022-09-17T01:10:37;97665.03;;;10.98;76.58
9187;BME280;7273;48.902;9.410;2022-09-17T01:29:58;97670.19;;;10.94;76.64
9187;BME280;7273;48.902;9.410;2022-09-17T01:32:37;97673.44;;;10.96;76.54
9187;BME280;7273;48.902;9.410;2022-09-17T01:35:42;97668.31;;;10.95;76.71
9187;BME280;7273;48.902;9.410;2022-09-17T01:38:12;97663.47;;;10.92;76.71
9187;BME280;7273;48.902;9.410;2022-09-17T01:46:10;97672.91;;;10.94;76.88
9187;BME280;7273;48.902;9.410;2022-09-17T01:48:41;97664.56;;;10.91;76.73
9187;BME280;7273;48.902;9.410;2022-09-17T01:51:13;97668.38;;;10.90;76.75
9187;BME280;7273;48.902;9.410;2022-09-17T01:53:47;97670.84;;;10.86;76.86
9187;BME280;7273;48.902;9.410;2022-09-17T01:56:20;97673.59;;;10.81;77.03
9187;BME280;7273;48.902;9.410;2022-09-17T01:58:51;97680.09;;;10.80;78.08
9187;BME280;7273;48.902;9.410;2022-09-17T02:01:21;97676.28;;;10.81;77.29
9187;BME280;7273;48.902;9.410;2022-09-17T02:06:25;97674.22;;;10.73;77.34
9187;BME280;7273;48.902;9.410;2022-09-17T02:08:58;97673.47;;;10.67;77.19
9187;BME280;7273;48.902;9.410;2022-09-17T02:11:24;97674.63;;;10.61;77.72
9187;BME280;7273;48.902;9.410;2022-09-17T02:16:29;97678.19;;;10.57;77.48
9187;BME280;7273;48.902;9.410;2022-09-17T02:19:01;97674.94;;;10.55;77.17
9187;BME280;7273;48.902;9.410;2022-09-17T02:21:39;97673.34;;;10.54;77.57
9187;BME280;7273;48.902;9.410;2022-09-17T02:24:25;97677.66;;;10.55;77.49
9187;BME280;7273;48.902;9.410;2022-09-17T02:27:18;97670.97;;;10.47;77.45
9187;BME280;7273;48.902;9.410;2022-09-17T02:29:43;97672.63;;;10.43;77.63
9187;BME280;7273;48.902;9.410;2022-09-17T02:32:10;97669.69;;;10.40;77.55
9187;BME280;7273;48.902;9.410;2022-09-17T02:34:36;97681.88;;;10.37;77.58
9187;BME280;7273;48.902;9.410;2022-09-17T02:37:02;97683.72;;;10.42;77.51
9187;BME280;7273;48.902;9.410;2022-09-17T02:39:29;97683.19;;;10.40;77.46
9187;BME280;7273;48.902;9.410;2022-09-17T02:42:17;97674.81;;;10.41;77.43
9187;BME280;7273;48.902;9.410;2022-09-17T02:48:47;97674.84;;;10.36;77.89
9187;BME280;7273;48.902;9.410;2022-09-17T02:55:49;97666.25;;;10.34;77.65
9187;BME280;7273;48.902;9.410;2022-09-17T02:58:25;97664.59;;;10.33;77.75
9187;BME280;7273;48.902;9.410;2022-09-17T03:00:54;97672.72;;;10.33;77.77
9187;BME280;7273;48.902;9.410;2022-09-17T03:03:35;97668.09;;;10.39;77.53
9187;BME280;7273;48.902;9.410;2022-09-17T03:06:03;97666.44;;;10.38;77.56
9187;BME280;7273;48.902;9.410;2022-09-17T03:08:35;97663.22;;;10.41;77.62
9187;BME280;7273;48.902;9.410;2022-09-17T03:11:02;97660.25;;;10.37;77.41
9187;BME280;7273;48.902;9.410;2022-09-17T03:13:29;97656.22;;;10.35;77.85
9187;BME280;7273;48.902;9.410;2022-09-17T03:15:55;97666.50;;;10.33;78.10
9187;BME280;7273;48.902;9.410;2022-09-17T03:18:20;97664.59;;;10.33;77.69
9187;BME280;7273;48.902;9.410;2022-09-17T03:20:46;97665.97;;;10.36;77.75
9187;BME280;7273;48.902;9.410;2022-09-17T03:23:11;97663.22;;;10.41;77.42
9187;BME280;7273;48.902;9.410;2022-09-17T03:25:36;97670.22;;;10.42;77.48
9187;BME280;7273;48.902;9.410;2022-09-17T03:28:02;97668.31;;;10.42;77.30
9187;BME280;7273;48.902;9.410;2022-09-17T03:30:27;97673.16;;;10.45;77.21
9187;BME280;7273;48.902;9.410;2022-09-17T03:32:53;97668.53;;;10.46;77.37
9187;BME280;7273;48.902;9.410;2022-09-17T03:35:18;97673.09;;;10.50;77.37
9187;BME280;7273;48.902;9.410;2022-09-17T03:37:43;97678.81;;;10.49;77.28
9187;BME280;7273;48.902;9.410;2022-09-17T03:40:11;97665.00;;;10.50;77.19
9187;BME280;7273;48.902;9.410;2022-09-17T03:42:36;97676.59;;;10.51;77.08
9187;BME280;7273;48.902;9.410;2022-09-17T03:45:02;97676.16;;;10.44;77.37
9187;BME280;7273;48.902;9.410;2022-09-17T03:47:28;97682.16;;;10.36;77.66
9187;BME280;7273;48.902;9.410;2022-09-17T03:49:53;97673.25;;;10.35;77.60
9187;BME280;7273;48.902;9.410;2022-09-17T03:52:19;97679.97;;;10.38;77.28
9187;BME280;7273;48.902;9.410;2022-09-17T03:54:44;97680.00;;;10.33;77.64
9187;BME280;7273;48.902;9.410;2022-09-17T03:57:10;97676.22;;;10.34;77.32
9187;BME280;7273;48.902;9.410;2022-09-17T03:59:35;97684.91;;;10.31;77.68
9187;BME280;7273;48.902;9.410;2022-09-17T04:02:01;97680.28;;;10.31;77.53
9187;BME280;7273;48.902;9.410;2022-09-17T04:04:26;97679.50;;;10.31;77.76
9187;BME280;7273;48.902;9.410;2022-09-17T04:06:51;97686.28;;;10.28;77.53
9187;BME280;7273;48.902;9.410;2022-09-17T04:09:17;97687.94;;;10.24;77.85
9187;BME280;7273;48.902;9.410;2022-09-17T04:11:42;97686.59;;;10.22;77.81
9187;BME280;7273;48.902;9.410;2022-09-17T04:14:08;97689.84;;;10.24;77.68
9187;BME280;7273;48.902;9.410;2022-09-17T04:16:33;97681.72;;;10.24;77.60
9187;BME280;7273;48.902;9.410;2022-09-17T04:18:59;97683.41;;;10.15;78.50
9187;BME280;7273;48.902;9.410;2022-09-17T04:21:24;97687.22;;;10.14;78.33
9187;BME280;7273;48.902;9.410;2022-09-17T04:23:50;97685.91;;;10.11;77.87
9187;BME280;7273;48.902;9.410;2022-09-17T04:26:15;97685.09;;;10.11;77.98
9187;BME280;7273;48.902;9.410;2022-09-17T04:28:40;97679.38;;;10.12;78.18
9187;BME280;7273;48.902;9.410;2022-09-17T04:31:06;97678.84;;;10.10;78.23
9187;BME280;7273;48.902;9.410;2022-09-17T04:33:32;97684.78;;;10.12;78.05
9187;BME280;7273;48.902;9.410;2022-09-17T04:35:57;97678.56;;;10.12;77.93
9187;BME280;7273;48.902;9.410;2022-09-17T04:38:22;97689.91;;;10.14;78.15
9187;BME280;7273;48.902;9.410;2022-09-17T04:40:48;97693.97;;;10.16;77.82
9187;BME280;7273;48.902;9.410;2022-09-17T04:43:16;97694.19;;;10.20;77.56
9187;BME280;7273;48.902;9.410;2022-09-17T04:45:44;97695.78;;;10.26;77.66
9187;BME280;7273;48.902;9.410;2022-09-17T04:48:09;97699.59;;;10.20;77.80
9187;BME280;7273;48.902;9.410;2022-09-17T04:50:35;97702.84;;;10.17;78.10
9187;BME280;7273;48.902;9.410;2022-09-17T04:53:00;97707.22;;;10.13;77.99
9187;BME280;7273;48.902;9.410;2022-09-17T04:55:26;97706.38;;;10.17;77.55
9187;BME280;7273;48.902;9.410;2022-09-17T04:57:52;97708.53;;;10.15;77.70
9187;BME280;7273;48.902;9.410;2022-09-17T05:00:18;97708.28;;;10.12;77.78
9187;BME280;7273;48.902;9.410;2022-09-17T05:02:46;97712.09;;;10.06;77.83
9187;BME280;7273;48.902;9.410;2022-09-17T05:05:13;97713.50;;;10.03;78.32
9187;BME280;7273;48.902;9.410;2022-09-17T05:07:38;97716.44;;;10.02;78.05
9187;BME280;7273;48.902;9.410;2022-09-17T05:10:05;97714.59;;;9.97;77.91
9187;BME280;7273;48.902;9.410;2022-09-17T05:12:30;97712.16;;;9.96;77.92
9187;BME280;7273;48.902;9.410;2022-09-17T05:14:56;97724.09;;;9.90;78.48
9187;BME280;7273;48.902;9.410;2022-09-17T05:17:21;97728.97;;;9.88;78.67
9187;BME280;7273;48.902;9.410;2022-09-17T05:19:47;97731.09;;;9.91;78.18
9187;BME280;7273;48.902;9.410;2022-09-17T05:22:12;97730.53;;;9.94;78.28
9187;BME280;7273;48.902;9.410;2022-09-17T05:24:38;97731.94;;;9.91;78.15
9187;BME280;7273;48.902;9.410;2022-09-17T05:27:04;97737.88;;;9.93;78.27
9187;BME280;7273;48.902;9.410;2022-09-17T05:29:30;97737.00;;;9.98;78.10
9187;BME280;7273;48.902;9.410;2022-09-17T05:31:55;97745.09;;;10.03;77.90
9187;BME280;7273;48.902;9.410;2022-09-17T05:34:21;97742.66;;;10.01;78.02
9187;BME280;7273;48.902;9.410;2022-09-17T05:36:46;97738.84;;;10.07;77.77
9187;BME280;7273;48.902;9.410;2022-09-17T05:39:11;97739.94;;;10.11;77.70
9187;BME280;7273;48.902;9.410;2022-09-17T05:41:37;97746.69;;;10.09;77.79
9187;BME280;7273;48.902;9.410;2022-09-17T05:44:02;97741.56;;;10.02;78.46
9187;BME280;7273;48.902;9.410;2022-09-17T05:46:28;97744.28;;;10.02;78.40
9187;BME280;7273;48.902;9.410;2022-09-17T05:48:57;97738.06;;;10.02;78.55
9187;BME280;7273;48.902;9.410;2022-09-17T05:51:23;97751.53;;;10.07;78.29
9187;BME280;7273;48.902;9.410;2022-09-17T05:53:48;97746.69;;;10.04;78.65
9187;BME280;7273;48.902;9.410;2022-09-17T05:56:14;97756.16;;;10.11;78.01
9187;BME280;7273;48.902;9.410;2022-09-17T05:58:40;97755.88;;;10.08;78.53
9187;BME280;7273;48.902;9.410;2022-09-17T06:01:05;97762.34;;;10.12;78.11
9187;BME280;7273;48.902;9.410;2022-09-17T06:03:31;97761.75;;;10.15;77.79
9187;BME280;7273;48.902;9.410;2022-09-17T06:05:58;97771.22;;;10.17;77.66
9187;BME280;7273;48.902;9.410;2022-09-17T06:08:26;97769.84;;;10.20;77.78
9187;BME280;7273;48.902;9.410;2022-09-17T06:10:52;97766.63;;;10.18;77.62
9187;BME280;7273;48.902;9.410;2022-09-17T06:13:18;97774.22;;;10.16;77.92
9187;BME280;7273;48.902;9.410;2022-09-17T06:15:53;97772.31;;;10.16;77.77
9187;BME280;7273;48.902;9.410;2022-09-17T06:18:19;97775.84;;;10.12;78.00
9187;BME280;7273;48.902;9.410;2022-09-17T06:20:58;97780.19;;;10.13;78.05
9187;BME280;7273;48.902;9.410;2022-09-17T06:23:25;97775.84;;;10.12;78.02
9187;BME280;7273;48.902;9.410;2022-09-17T06:25:52;97772.63;;;10.05;78.63
9187;BME280;7273;48.902;9.410;2022-09-17T06:28:18;97778.81;;;10.05;78.35
9187;BME280;7273;48.902;9.410;2022-09-17T06:30:44;97780.19;;;10.13;78.28
9187;BME280;7273;48.902;9.410;2022-09-17T06:33:09;97782.59;;;10.14;77.95
9187;BME280;7273;48.902;9.410;2022-09-17T06:35:35;97781.47;;;10.20;78.08
9187;BME280;7273;48.902;9.410;2022-09-17T06:38:03;97780.97;;;10.13;78.44
9187;BME280;7273;48.902;9.410;2022-09-17T06:40:28;97788.47;;;10.21;79.47
9187;BME280;7273;48.902;9.410;2022-09-17T06:42:57;97788.00;;;10.14;78.37
9187;BME280;7273;48.902;9.410;2022-09-17T06:45:27;97783.66;;;10.13;78.55
9187;BME280;7273;48.902;9.410;2022-09-17T06:47:52;97783.66;;;10.13;78.53
9187;BME280;7273;48.902;9.410;2022-09-17T06:50:18;97791.25;;;10.16;78.42
9187;BME280;7273;48.902;9.410;2022-09-17T06:52:47;97786.06;;;10.20;77.63
9187;BME280;7273;48.902;9.410;2022-09-17T06:55:13;97795.78;;;10.21;77.72
9187;BME280;7273;48.902;9.410;2022-09-17T06:57:40;97794.13;;;10.25;77.58
9187;BME280;7273;48.902;9.410;2022-09-17T07:00:06;97800.63;;;10.24;77.43
9187;BME280;7273;48.902;9.410;2022-09-17T07:02:32;97791.13;;;10.26;77.70
9187;BME280;7273;48.902;9.410;2022-09-17T07:04:58;97799.25;;;10.26;77.15
9187;BME280;7273;48.902;9.410;2022-09-17T07:07:23;97795.72;;;10.31;77.12
9187;BME280;7273;48.902;9.410;2022-09-17T07:09:49;97800.00;;;10.37;76.80
9187;BME280;7273;48.902;9.410;2022-09-17T07:12:14;97793.28;;;10.34;77.05
9187;BME280;7273;48.902;9.410;2022-09-17T07:14:39;97803.28;;;10.34;77.31
9187;BME280;7273;48.902;9.410;2022-09-17T07:17:05;97808.94;;;10.37;77.09
9187;BME280;7273;48.902;9.410;2022-09-17T07:19:31;97811.09;;;10.35;77.17
9187;BME280;7273;48.902;9.410;2022-09-17T07:21:56;97818.69;;;10.28;77.47
9187;BME280;7273;48.902;9.410;2022-09-17T07:24:22;97813.06;;;10.20;77.82
9187;BME280;7273;48.902;9.410;2022-09-17T07:26:49;97819.84;;;10.22;78.02
9187;BME280;7273;48.902;9.410;2022-09-17T07:29:15;97818.44;;;10.25;77.74
9187;BME280;7273;48.902;9.410;2022-09-17T07:31:40;97823.41;;;10.13;78.57
9187;BME280;7273;48.902;9.410;2022-09-17T07:34:06;97832.31;;;10.13;78.67
9187;BME280;7273;48.902;9.410;2022-09-17T07:36:31;97835.28;;;10.07;79.43
9187;BME280;7273;48.902;9.410;2022-09-17T07:38:56;97829.13;;;10.01;79.80
9187;BME280;7273;48.902;9.410;2022-09-17T07:41:22;97833.97;;;9.99;79.63
9187;BME280;7273;48.902;9.410;2022-09-17T07:43:47;97834.25;;;9.98;79.82
9187;BME280;7273;48.902;9.410;2022-09-17T07:46:18;97835.88;;;9.94;79.95
9187;BME280;7273;48.902;9.410;2022-09-17T07:48:44;97841.53;;;9.97;79.34
9187;BME280;7273;48.902;9.410;2022-09-17T07:51:18;97840.75;;;9.97;79.09
9187;BME280;7273;48.902;9.410;2022-09-17T07:53:44;97838.59;;;9.89;80.25
9187;BME280;7273;48.902;9.410;2022-09-17T07:56:10;97839.41;;;9.94;79.90
9187;BME280;7273;48.902;9.410;2022-09-17T07:58:36;97846.69;;;9.94;79.36
9187;BME280;7273;48.902;9.410;2022-09-17T08:01:09;97851.59;;;9.92;79.88
9187;BME280;7273;48.902;9.410;2022-09-17T08:03:36;97858.56;;;9.98;79.45
9187;BME280;7273;48.902;9.410;2022-09-17T08:06:08;97853.72;;;10.00;79.49
9187;BME280;7273;48.902;9.410;2022-09-17T08:08:35;97849.63;;;10.02;80.23
9187;BME280;7273;48.902;9.410;2022-09-17T08:11:12;97848.28;;;10.05;80.33
9187;BME280;7273;48.902;9.410;2022-09-17T08:13:38;97855.59;;;9.99;81.41
9187;BME280;7273;48.902;9.410;2022-09-17T08:16:08;97855.00;;;10.07;80.13
9187;BME280;7273;48.902;9.410;2022-09-17T08:18:34;97869.09;;;10.09;80.25
9187;BME280;7273;48.902;9.410;2022-09-17T08:21:02;97861.25;;;10.08;80.77
9187;BME280;7273;48.902;9.410;2022-09-17T08:23:29;97866.38;;;10.09;80.36
9187;BME280;7273;48.902;9.410;2022-09-17T08:25:57;97863.69;;;10.09;80.41
9187;BME280;7273;48.902;9.410;2022-09-17T08:28:24;97857.47;;;10.09;80.45
9187;BME280;7273;48.902;9.410;2022-09-17T08:30:50;97859.28;;;10.18;79.33
9187;BME280;7273;48.902;9.410;2022-09-17T08:33:16;97863.59;;;10.24;79.01
9187;BME280;7273;48.902;9.410;2022-09-17T08:35:50;97857.94;;;10.21;79.51
9187;BME280;7273;48.902;9.410;2022-09-17T08:38:16;97859.84;;;10.20;79.85
9187;BME280;7273;48.902;9.410;2022-09-17T08:41:08;97857.09;;;10.25;79.71
9187;BME280;7273;48.902;9.410;2022-09-17T08:43:37;97858.16;;;10.34;79.29
9187;BME280;7273;48.902;9.410;2022-09-17T08:46:08;97852.38;;;10.46;79.05
9187;BME280;7273;48.902;9.410;2022-09-17T08:48:44;97860.94;;;10.58;78.76
9187;BME280;7273;48.902;9.410;2022-09-17T08:54:02;97866.19;;;10.83;78.70
9187;BME280;7273;48.902;9.410;2022-09-17T08:56:33;97865.59;;;10.86;79.13
9187;BME280;7273;48.902;9.410;2022-09-17T09:02:03;97867.66;;;10.99;78.94
9187;BME280;7273;48.902;9.410;2022-09-17T09:04:57;97871.25;;;11.18;78.12
9187;BME280;7273;48.902;9.410;2022-09-17T09:07:28;97879.38;;;11.18;77.99
9187;BME280;7273;48.902;9.410;2022-09-17T09:10:16;97874.22;;;11.22;77.96
9187;BME280;7273;48.902;9.410;2022-09-17T09:12:44;97879.59;;;11.27;77.99
9187;BME280;7273;48.902;9.410;2022-09-17T09:18:00;97869.09;;;11.49;77.65
9187;BME280;7273;48.902;9.410;2022-09-17T09:20:32;97866.81;;;11.56;77.42
9187;BME280;7273;48.902;9.410;2022-09-17T09:23:17;97860.25;;;11.67;77.07
9187;BME280;7273;48.902;9.410;2022-09-17T09:26:19;97861.81;;;11.73;77.14
9187;BME280;7273;48.902;9.410;2022-09-17T09:32:01;97868.25;;;11.77;76.64
9187;BME280;7273;48.902;9.410;2022-09-17T09:34:32;97863.47;;;11.69;76.34
9187;BME280;7273;48.902;9.410;2022-09-17T09:37:23;97859.28;;;11.81;76.41
9187;BME280;7273;48.902;9.410;2022-09-17T09:39:52;97859.22;;;11.86;76.38
9187;BME280;7273;48.902;9.410;2022-09-17T09:42:31;97858.91;;;11.88;76.62
9187;BME280;7273;48.902;9.410;2022-09-17T09:45:05;97853.03;;;11.81;76.43
9187;BME280;7273;48.902;9.410;2022-09-17T09:52:48;97860.28;;;11.85;76.15
9187;BME280;7273;48.902;9.410;2022-09-17T09:55:57;97862.94;;;11.90;76.26
9187;BME280;7273;48.902;9.410;2022-09-17T09:58:33;97861.81;;;11.73;75.29
9187;BME280;7273;48.902;9.410;2022-09-17T10:01:00;97866.81;;;11.84;75.66
9187;BME280;7273;48.902;9.410;2022-09-17T10:03:28;97868.47;;;11.80;75.73
9187;BME280;7273;48.902;9.410;2022-09-17T10:06:07;97870.06;;;11.86;75.97
9187;BME280;7273;48.902;9.410;2022-09-17T10:08:35;97866.75;;;11.89;75.52
9187;BME280;7273;48.902;9.410;2022-09-17T10:13:34;97854.94;;;11.80;75.46
9187;BME280;7273;48.902;9.410;2022-09-17T10:16:20;97861.34;;;11.89;75.51
9187;BME280;7273;48.902;9.410;2022-09-17T10:18:49;97863.63;;;12.01;75.39
9187;BME280;7273;48.902;9.410;2022-09-17T10:23:56;97851.72;;;12.58;75.39
9187;BME280;7273;48.902;9.410;2022-09-17T10:26:28;97855.06;;;12.87;75.07
9187;BME280;7273;48.902;9.410;2022-09-17T10:28:56;97850.13;;;13.07;74.60
9187;BME280;7273;48.902;9.410;2022-09-17T10:31:23;97849.53;;;13.10;73.62
9187;BME280;7273;48.902;9.410;2022-09-17T10:33:55;97851.97;;;13.12;73.83
9187;BME280;7273;48.902;9.410;2022-09-17T10:36:42;97849.84;;;13.09;73.51
9187;BME280;7273;48.902;9.410;2022-09-17T10:41:55;97836.50;;;12.94;73.03
9187;BME280;7273;48.902;9.410;2022-09-17T10:44:23;97840.41;;;12.88;73.14
9187;BME280;7273;48.902;9.410;2022-09-17T10:46:50;97839.97;;;13.13;72.66
9187;BME280;7273;48.902;9.410;2022-09-17T10:49:42;97835.06;;;13.15;72.82
9187;BME280;7273;48.902;9.410;2022-09-17T10:52:33;97846.13;;;13.18;72.60
9187;BME280;7273;48.902;9.410;2022-09-17T11:06:14;97833.97;;;14.24;69.63
9187;BME280;7273;48.902;9.410;2022-09-17T11:11:56;97826.56;;;14.52;70.55
9187;BME280;7273;48.902;9.410;2022-09-17T11:17:34;97812.94;;;14.88;68.46
9187;BME280;7273;48.902;9.410;2022-09-17T11:20:19;97816.50;;;14.97;69.96
9187;BME280;7273;48.902;9.410;2022-09-17T11:25:56;97831.22;;;14.51;68.84
9187;BME280;7273;48.902;9.410;2022-09-17T11:31:20;97856.28;;;14.62;71.11
9187;BME280;7273;48.902;9.410;2022-09-17T11:39:13;97854.44;;;13.95;73.23
9187;BME280;7273;48.902;9.410;2022-09-17T11:41:44;97838.94;;;13.82;73.45
9187;BME280;7273;48.902;9.410;2022-09-17T11:44:24;97823.38;;;13.60;73.69
9187;BME280;7273;48.902;9.410;2022-09-17T11:47:00;97819.31;;;13.30;74.38
9187;BME280;7273;48.902;9.410;2022-09-17T11:49:34;97832.66;;;13.13;74.73
9187;BME280;7273;48.902;9.410;2022-09-17T11:52:05;97836.88;;;13.19;74.81
9187;BME280;7273;48.902;9.410;2022-09-17T11:54:45;97837.25;;;13.13;75.07
9187;BME280;7273;48.902;9.410;2022-09-17T11:57:19;97831.91;;;13.40;76.12
9187;BME280;7273;48.902;9.410;2022-09-17T12:00:13;97830.44;;;14.95;74.81
9187;BME280;7273;48.902;9.410;2022-09-17T12:05:22;97816.28;;;16.33;nan
9187;BME280;7273;48.902;9.410;2022-09-17T12:10:36;97796.50;;;16.27;nan
9187;BME280;7273;48.902;9.410;2022-09-17T12:15:37;97797.88;;;15.82;nan
9187;BME280;7273;48.902;9.410;2022-09-17T12:18:30;97795.09;;;15.65;nan
9187;BME280;7273;48.902;9.410;2022-09-17T12:21:01;97789.56;;;15.17;nan
9187;BME280;7273;48.902;9.410;2022-09-17T12:23:30;97786.09;;;15.03;nan
9187;BME280;7273;48.902;9.410;2022-09-17T12:31:50;97781.41;;;15.17;nan
9187;BME280;7273;48.902;9.410;2022-09-17T12:40:36;97772.00;;;15.62;nan
9187;BME280;7273;48.902;9.410;2022-09-17T12:52:00;97790.44;;;15.35;nan
9187;BME280;7273;48.902;9.410;2022-09-17T12:57:36;97779.88;;;15.33;nan
9187;BME280;7273;48.902;9.410;2022-09-17T13:00:13;97771.34;;;15.65;nan
9187;BME280;7273;48.902;9.410;2022-09-17T13:08:29;97800.22;;;15.58;nan
9187;BME280;7273;48.902;9.410;2022-09-17T13:21:40;97822.25;;;15.17;nan
9187;BME280;7273;48.902;9.410;2022-09-17T13:24:22;97811.94;;;15.06;nan
9187;BME280;7273;48.902;9.410;2022-09-17T13:26:53;97810.69;;;15.12;nan
9187;BME280;7273;48.902;9.410;2022-09-17T13:34:57;97805.09;;;14.86;nan
9187;BME280;7273;48.902;9.410;2022-09-17T13:37:22;97820.16;;;14.92;nan
9187;BME280;7273;48.902;9.410;2022-09-17T13:39:49;97820.47;;;14.91;nan
9187;BME280;7273;48.902;9.410;2022-09-17T13:42:19;97811.75;;;14.80;nan
9187;BME280;7273;48.902;9.410;2022-09-17T13:44:52;97813.38;;;14.81;nan
9187;BME280;7273;48.902;9.410;2022-09-17T13:47:31;97813.09;;;14.91;nan
9187;BME280;7273;48.902;9.410;2022-09-17T13:50:06;97813.84;;;14.83;nan
9187;BME280;7273;48.902;9.410;2022-09-17T13:52:43;97806.88;;;14.91;nan
9187;BME280;7273;48.902;9.410;2022-09-17T13:55:31;97808.91;;;14.85;nan
9187;BME280;7273;48.902;9.410;2022-09-17T13:57:59;97800.59;;;14.90;nan
9187;BME280;7273;48.902;9.410;2022-09-17T14:18:59;97819.97;;;14.89;nan
9187;BME280;7273;48.902;9.410;2022-09-17T14:21:32;97816.56;;;15.05;nan
9187;BME280;7273;48.902;9.410;2022-09-17T14:24:12;97823.03;;;15.18;nan
9187;BME280;7273;48.902;9.410;2022-09-17T14:32:17;97815.88;;;15.00;nan
9187;BME280;7273;48.902;9.410;2022-09-17T14:34:47;97808.84;;;14.99;nan
9187;BME280;7273;48.902;9.410;2022-09-17T14:37:17;97804.69;;;15.01;nan
9187;BME280;7273;48.902;9.410;2022-09-17T14:39:45;97812.84;;;15.01;nan
9187;BME280;7273;48.902;9.410;2022-09-17T14:42:28;97805.13;;;14.95;nan
9187;BME280;7273;48.902;9.410;2022-09-17T14:44:59;97805.25;;;14.90;nan
9187;BME280;7273;48.902;9.410;2022-09-17T14:47:26;97799.31;;;14.88;nan
9187;BME280;7273;48.902;9.410;2022-09-17T14:49:52;97786.69;;;14.92;nan
9187;BME280;7273;48.902;9.410;2022-09-17T14:52:29;97783.44;;;14.90;nan
9187;BME280;7273;48.902;9.410;2022-09-17T14:57:39;97798.38;;;14.92;nan
9187;BME280;7273;48.902;9.410;2022-09-17T15:00:13;97790.91;;;14.75;nan
9187;BME280;7273;48.902;9.410;2022-09-17T15:02:41;97795.31;;;14.63;nan
9187;BME280;7273;48.902;9.410;2022-09-17T15:07:47;97791.06;;;14.57;nan
9187;BME280;7273;48.902;9.410;2022-09-17T15:10:16;97795.16;;;14.46;nan
9187;BME280;7273;48.902;9.410;2022-09-17T15:12:43;97796.91;;;14.42;nan
9187;BME280;7273;48.902;9.410;2022-09-17T15:15:29;97804.44;;;14.45;nan
9187;BME280;7273;48.902;9.410;2022-09-17T15:17:54;97792.69;;;14.58;nan
9187;BME280;7273;48.902;9.410;2022-09-17T15:20:27;97786.31;;;14.62;nan
9187;BME280;7273;48.902;9.410;2022-09-17T15:23:02;97794.72;;;14.52;nan
9187;BME280;7273;48.902;9.410;2022-09-17T15:25:32;97784.88;;;14.43;nan
9187;BME280;7273;48.902;9.410;2022-09-17T15:28:15;97782.47;;;14.41;nan
9187;BME280;7273;48.902;9.410;2022-09-17T15:30:43;97788.13;;;14.45;nan
9187;BME280;7273;48.902;9.410;2022-09-17T15:33:10;97785.81;;;14.38;nan
9187;BME280;7273;48.902;9.410;2022-09-17T15:35:37;97785.59;;;14.48;nan
9187;BME280;7273;48.902;9.410;2022-09-17T15:38:20;97773.25;;;14.51;nan
9187;BME280;7273;48.902;9.410;2022-09-17T15:40:49;97782.56;;;14.50;nan
9187;BME280;7273;48.902;9.410;2022-09-17T15:43:31;97781.47;;;14.37;nan
9187;BME280;7273;48.902;9.410;2022-09-17T15:46:35;97792.16;;;14.34;nan
9187;BME280;7273;48.902;9.410;2022-09-17T15:49:01;97793.09;;;14.16;nan
9187;BME280;7273;48.902;9.410;2022-09-17T15:51:33;97793.03;;;14.07;nan
9187;BME280;7273;48.902;9.410;2022-09-17T15:54:00;97799.94;;;14.13;nan
9187;BME280;7273;48.902;9.410;2022-09-17T15:56:34;97794.84;;;13.98;nan
9187;BME280;7273;48.902;9.410;2022-09-17T15:59:24;97796.72;;;14.11;nan
9187;BME280;7273;48.902;9.410;2022-09-17T16:01:53;97797.31;;;14.22;nan
9187;BME280;7273;48.902;9.410;2022-09-17T16:04:33;97799.22;;;14.21;nan
9187;BME280;7273;48.902;9.410;2022-09-17T16:09:48;97785.69;;;14.43;nan
9187;BME280;7273;48.902;9.410;2022-09-17T16:12:19;97787.41;;;14.39;nan
9187;BME280;7273;48.902;9.410;2022-09-17T16:14:47;97799.84;;;14.32;nan
9187;BME280;7273;48.902;9.410;2022-09-17T16:17:43;97794.59;;;14.22;nan
9187;BME280;7273;48.902;9.410;2022-09-17T16:22:42;97803.69;;;14.04;nan
9187;BME280;7273;48.902;9.410;2022-09-17T16:25:09;97798.69;;;13.97;nan
9187;BME280;7273;48.902;9.410;2022-09-17T16:28:02;97797.16;;;13.91;nan
9187;BME280;7273;48.902;9.410;2022-09-17T16:30:28;97807.34;;;13.86;nan
9187;BME280;7273;48.902;9.410;2022-09-17T16:32:53;97804.94;;;13.84;nan
9187;BME280;7273;48.902;9.410;2022-09-17T16:35:21;97813.19;;;13.79;nan
9187;BME280;7273;48.902;9.410;2022-09-17T16:37:52;97810.28;;;13.76;nan
9187;BME280;7273;48.902;9.410;2022-09-17T16:40:20;97805.53;;;13.68;nan
9187;BME280;7273;48.902;9.410;2022-09-17T16:42:46;97812.38;;;13.65;nan
9187;BME280;7273;48.902;9.410;2022-09-17T16:45:12;97809.28;;;13.58;nan
9187;BME280;7273;48.902;9.410;2022-09-17T16:47:39;97809.38;;;13.53;nan
9187;BME280;7273;48.902;9.410;2022-09-17T16:50:15;97809.97;;;13.50;nan